sensor_id;sensor_type;location;lat;lon;timestamp;pressure;altitude;pressure_sealevel;temperature;humidity
12468;BME280;57850;52.922;6.256;2023-05-08T00:02:21;102476.00;;;16.04;nan
12468;BME280;57850;52.922;6.256;2023-05-08T00:04:49;102464.75;;;16.26;nan
12468;BME280;57850;52.922;6.256;2023-05-08T00:07:15;102476.19;;;15.98;nan
12468;BME280;57850;52.922;6.256;2023-05-08T00:09:42;102467.56;;;16.21;nan
12468;BME280;57850;52.922;6.256;2023-05-08T00:12:08;102469.38;;;16.19;nan
12468;BME280;57850;52.922;6.256;2023-05-08T00:14:35;102469.19;;;16.25;nan
12468;BME280;57850;52.922;6.256;2023-05-08T00:17:01;102472.94;;;16.18;nan
12468;BME280;57850;52.922;6.256;2023-05-08T00:19:28;102457.88;;;16.22;nan
12468;BME280;57850;52.922;6.256;2023-05-08T00:21:56;102462.94;;;16.28;nan
12468;BME280;57850;52.922;6.256;2023-05-08T00:24:22;102461.97;;;16.04;nan
12468;BME280;57850;52.922;6.256;2023-05-08T00:26:49;102468.94;;;16.06;nan
12468;BME280;57850;52.922;6.256;2023-05-08T00:29:15;102464.47;;;16.08;nan
12468;BME280;57850;52.922;6.256;2023-05-08T00:31:42;102456.22;;;16.19;nan
12468;BME280;57850;52.922;6.256;2023-05-08T00:34:08;102462.50;;;16.15;nan
12468;BME280;57850;52.922;6.256;2023-05-08T00:36:35;102458.19;;;16.13;nan
12468;BME280;57850;52.922;6.256;2023-05-08T00:39:03;102450.44;;;16.08;nan
12468;BME280;57850;52.922;6.256;2023-05-08T00:41:29;102458.53;;;16.02;nan
12468;BME280;57850;52.922;6.256;2023-05-08T00:43:56;102460.16;;;16.06;nan
12468;BME280;57850;52.922;6.256;2023-05-08T00:46:22;102453.63;;;16.18;nan
12468;BME280;57850;52.922;6.256;2023-05-08T00:48:49;102458.31;;;16.10;nan
12468;BME280;57850;52.922;6.256;2023-05-08T00:51:16;102451.34;;;15.81;nan
12468;BME280;57850;52.922;6.256;2023-05-08T00:53:43;102447.66;;;15.86;nan
12468;BME280;57850;52.922;6.256;2023-05-08T00:56:13;102458.78;;;15.94;nan
12468;BME280;57850;52.922;6.256;2023-05-08T00:58:41;102452.97;;;15.57;nan
12468;BME280;57850;52.922;6.256;2023-05-08T01:01:09;102445.09;;;15.85;nan
12468;BME280;57850;52.922;6.256;2023-05-08T01:03:36;102448.19;;;15.97;nan
12468;BME280;57850;52.922;6.256;2023-05-08T01:06:04;102452.78;;;15.91;nan
12468;BME280;57850;52.922;6.256;2023-05-08T01:08:30;102454.22;;;15.73;nan
12468;BME280;57850;52.922;6.256;2023-05-08T01:11:05;102452.03;;;15.86;nan
12468;BME280;57850;52.922;6.256;2023-05-08T01:13:41;102444.44;;;15.77;nan
12468;BME280;57850;52.922;6.256;2023-05-08T01:16:14;102452.50;;;15.72;nan
12468;BME280;57850;52.922;6.256;2023-05-08T01:18:46;102454.75;;;15.57;nan
12468;BME280;57850;52.922;6.256;2023-05-08T01:21:21;102452.50;;;15.43;nan
12468;BME280;57850;52.922;6.256;2023-05-08T01:24:18;102433.94;;;15.49;nan
12468;BME280;57850;52.922;6.256;2023-05-08T01:27:19;102437.63;;;15.42;nan
12468;BME280;57850;52.922;6.256;2023-05-08T01:32:49;102444.47;;;15.49;nan
12468;BME280;57850;52.922;6.256;2023-05-08T01:35:23;102448.22;;;15.40;nan
12468;BME280;57850;52.922;6.256;2023-05-08T01:38:02;102451.69;;;15.41;nan
12468;BME280;57850;52.922;6.256;2023-05-08T01:40:36;102451.91;;;15.33;nan
12468;BME280;57850;52.922;6.256;2023-05-08T01:43:14;102442.19;;;15.37;nan
12468;BME280;57850;52.922;6.256;2023-05-08T01:45:45;102451.13;;;15.31;nan
12468;BME280;57850;52.922;6.256;2023-05-08T01:48:18;102444.91;;;15.34;nan
12468;BME280;57850;52.922;6.256;2023-05-08T01:50:50;102451.44;;;15.21;nan
12468;BME280;57850;52.922;6.256;2023-05-08T01:53:20;102441.59;;;15.27;nan
12468;BME280;57850;52.922;6.256;2023-05-08T01:55:50;102435.31;;;15.02;nan
12468;BME280;57850;52.922;6.256;2023-05-08T01:58:20;102432.34;;;15.14;nan
12468;BME280;57850;52.922;6.256;2023-05-08T02:00:48;102431.56;;;15.11;nan
12468;BME280;57850;52.922;6.256;2023-05-08T02:03:19;102448.56;;;14.99;nan
12468;BME280;57850;52.922;6.256;2023-05-08T02:05:49;102451.38;;;14.93;nan
12468;BME280;57850;52.922;6.256;2023-05-08T02:08:18;102456.34;;;15.02;nan
12468;BME280;57850;52.922;6.256;2023-05-08T02:10:47;102452.69;;;15.08;nan
12468;BME280;57850;52.922;6.256;2023-05-08T02:13:15;102454.41;;;15.09;nan
12468;BME280;57850;52.922;6.256;2023-05-08T02:15:44;102460.03;;;14.96;nan
12468;BME280;57850;52.922;6.256;2023-05-08T02:18:13;102453.94;;;14.94;nan
12468;BME280;57850;52.922;6.256;2023-05-08T02:20:43;102448.47;;;15.02;nan
12468;BME280;57850;52.922;6.256;2023-05-08T02:23:10;102446.88;;;14.96;nan
12468;BME280;57850;52.922;6.256;2023-05-08T02:25:38;102453.91;;;14.96;nan
12468;BME280;57850;52.922;6.256;2023-05-08T02:28:05;102456.66;;;14.91;nan
12468;BME280;57850;52.922;6.256;2023-05-08T02:30:33;102458.03;;;14.74;nan
12468;BME280;57850;52.922;6.256;2023-05-08T02:33:00;102449.19;;;14.78;nan
12468;BME280;57850;52.922;6.256;2023-05-08T02:35:29;102450.94;;;14.77;nan
12468;BME280;57850;52.922;6.256;2023-05-08T02:37:59;102444.09;;;14.72;nan
12468;BME280;57850;52.922;6.256;2023-05-08T02:40:28;102436.16;;;14.73;nan
12468;BME280;57850;52.922;6.256;2023-05-08T02:42:56;102441.13;;;14.84;nan
12468;BME280;57850;52.922;6.256;2023-05-08T02:45:24;102452.81;;;14.72;nan
12468;BME280;57850;52.922;6.256;2023-05-08T02:48:00;102444.91;;;14.74;nan
12468;BME280;57850;52.922;6.256;2023-05-08T02:50:37;102439.31;;;14.86;nan
12468;BME280;57850;52.922;6.256;2023-05-08T02:53:11;102447.00;;;14.92;nan
12468;BME280;57850;52.922;6.256;2023-05-08T02:55:45;102446.38;;;14.84;nan
12468;BME280;57850;52.922;6.256;2023-05-08T02:58:17;102446.50;;;14.79;nan
12468;BME280;57850;52.922;6.256;2023-05-08T03:00:48;102437.66;;;14.82;nan
12468;BME280;57850;52.922;6.256;2023-05-08T03:03:21;102440.63;;;15.00;nan
12468;BME280;57850;52.922;6.256;2023-05-08T03:05:51;102446.28;;;14.87;nan
12468;BME280;57850;52.922;6.256;2023-05-08T03:08:25;102441.38;;;14.75;nan
12468;BME280;57850;52.922;6.256;2023-05-08T03:10:55;102434.41;;;14.74;nan
12468;BME280;57850;52.922;6.256;2023-05-08T03:13:24;102426.69;;;14.68;nan
12468;BME280;57850;52.922;6.256;2023-05-08T03:15:54;102425.22;;;14.58;nan
12468;BME280;57850;52.922;6.256;2023-05-08T03:18:34;102427.38;;;14.42;nan
12468;BME280;57850;52.922;6.256;2023-05-08T03:21:03;102420.09;;;14.53;nan
12468;BME280;57850;52.922;6.256;2023-05-08T03:23:32;102430.97;;;14.39;nan
12468;BME280;57850;52.922;6.256;2023-05-08T03:26:02;102421.78;;;14.56;nan
12468;BME280;57850;52.922;6.256;2023-05-08T03:28:29;102422.66;;;14.55;nan
12468;BME280;57850;52.922;6.256;2023-05-08T03:30:57;102414.16;;;14.45;nan
12468;BME280;57850;52.922;6.256;2023-05-08T03:33:25;102411.25;;;14.56;nan
12468;BME280;57850;52.922;6.256;2023-05-08T03:35:53;102425.28;;;14.55;nan
12468;BME280;57850;52.922;6.256;2023-05-08T03:38:20;102417.56;;;14.50;nan
12468;BME280;57850;52.922;6.256;2023-05-08T03:40:48;102414.16;;;14.45;nan
12468;BME280;57850;52.922;6.256;2023-05-08T03:43:15;102415.84;;;14.47;nan
12468;BME280;57850;52.922;6.256;2023-05-08T03:45:43;102418.69;;;14.40;nan
12468;BME280;57850;52.922;6.256;2023-05-08T03:48:12;102411.03;;;14.31;nan
12468;BME280;57850;52.922;6.256;2023-05-08T03:50:39;102410.34;;;14.23;nan
12468;BME280;57850;52.922;6.256;2023-05-08T03:53:06;102400.97;;;14.13;nan
12468;BME280;57850;52.922;6.256;2023-05-08T03:55:32;102398.22;;;14.19;nan
12468;BME280;57850;52.922;6.256;2023-05-08T03:58:04;102398.41;;;14.11;nan
12468;BME280;57850;52.922;6.256;2023-05-08T04:00:42;102394.28;;;14.03;nan
12468;BME280;57850;52.922;6.256;2023-05-08T04:03:23;102392.34;;;14.09;nan
12468;BME280;57850;52.922;6.256;2023-05-08T04:05:56;102393.97;;;14.13;nan
12468;BME280;57850;52.922;6.256;2023-05-08T04:08:27;102392.47;;;14.05;nan
12468;BME280;57850;52.922;6.256;2023-05-08T04:11:01;102396.09;;;13.99;nan
12468;BME280;57850;52.922;6.256;2023-05-08T04:13:35;102390.00;;;13.99;nan
12468;BME280;57850;52.922;6.256;2023-05-08T04:16:05;102392.72;;;13.94;nan
12468;BME280;57850;52.922;6.256;2023-05-08T04:18:36;102381.00;;;14.07;nan
12468;BME280;57850;52.922;6.256;2023-05-08T04:21:06;102389.91;;;14.03;nan
12468;BME280;57850;52.922;6.256;2023-05-08T04:23:34;102385.78;;;13.93;nan
12468;BME280;57850;52.922;6.256;2023-05-08T04:26:01;102380.28;;;14.02;nan
12468;BME280;57850;52.922;6.256;2023-05-08T04:28:30;102382.84;;;14.05;nan
12468;BME280;57850;52.922;6.256;2023-05-08T04:31:00;102397.59;;;14.09;nan
12468;BME280;57850;52.922;6.256;2023-05-08T04:33:28;102391.91;;;13.92;nan
12468;BME280;57850;52.922;6.256;2023-05-08T04:35:54;102389.41;;;13.87;nan
12468;BME280;57850;52.922;6.256;2023-05-08T04:38:22;102380.53;;;13.91;nan
12468;BME280;57850;52.922;6.256;2023-05-08T04:40:48;102387.59;;;13.89;nan
12468;BME280;57850;52.922;6.256;2023-05-08T04:43:15;102386.81;;;13.86;nan
12468;BME280;57850;52.922;6.256;2023-05-08T04:45:43;102393.19;;;13.76;nan
12468;BME280;57850;52.922;6.256;2023-05-08T04:48:09;102385.72;;;13.94;nan
12468;BME280;57850;52.922;6.256;2023-05-08T04:50:36;102385.38;;;14.08;nan
12468;BME280;57850;52.922;6.256;2023-05-08T04:53:02;102401.19;;;14.05;nan
12468;BME280;57850;52.922;6.256;2023-05-08T04:55:29;102395.91;;;14.07;nan
12468;BME280;57850;52.922;6.256;2023-05-08T04:57:55;102409.88;;;14.07;nan
12468;BME280;57850;52.922;6.256;2023-05-08T05:00:22;102412.34;;;14.13;nan
12468;BME280;57850;52.922;6.256;2023-05-08T05:02:50;102418.88;;;13.97;nan
12468;BME280;57850;52.922;6.256;2023-05-08T05:05:17;102412.81;;;13.95;nan
12468;BME280;57850;52.922;6.256;2023-05-08T05:07:43;102423.56;;;13.86;nan
12468;BME280;57850;52.922;6.256;2023-05-08T05:10:10;102415.75;;;14.18;nan
12468;BME280;57850;52.922;6.256;2023-05-08T05:12:36;102418.31;;;14.20;nan
12468;BME280;57850;52.922;6.256;2023-05-08T05:15:03;102420.06;;;14.19;nan
12468;BME280;57850;52.922;6.256;2023-05-08T05:17:30;102417.44;;;14.19;nan
12468;BME280;57850;52.922;6.256;2023-05-08T05:19:58;102428.53;;;14.30;nan
12468;BME280;57850;52.922;6.256;2023-05-08T05:22:25;102429.03;;;14.46;nan
12468;BME280;57850;52.922;6.256;2023-05-08T05:24:53;102433.00;;;14.27;nan
12468;BME280;57850;52.922;6.256;2023-05-08T05:27:19;102438.22;;;14.28;nan
12468;BME280;57850;52.922;6.256;2023-05-08T05:29:46;102432.47;;;14.48;nan
12468;BME280;57850;52.922;6.256;2023-05-08T05:32:12;102433.97;;;14.57;nan
12468;BME280;57850;52.922;6.256;2023-05-08T05:34:39;102445.69;;;14.45;nan
12468;BME280;57850;52.922;6.256;2023-05-08T05:37:07;102457.94;;;14.11;nan
12468;BME280;57850;52.922;6.256;2023-05-08T05:39:33;102440.56;;;14.40;nan
12468;BME280;57850;52.922;6.256;2023-05-08T05:42:02;102444.72;;;14.47;nan
12468;BME280;57850;52.922;6.256;2023-05-08T05:44:28;102474.84;;;13.99;nan
12468;BME280;57850;52.922;6.256;2023-05-08T05:46:55;102456.56;;;14.30;nan
12468;BME280;57850;52.922;6.256;2023-05-08T05:49:21;102442.88;;;14.53;nan
12468;BME280;57850;52.922;6.256;2023-05-08T05:51:48;102440.97;;;14.58;nan
12468;BME280;57850;52.922;6.256;2023-05-08T05:54:16;102455.31;;;14.44;nan
12468;BME280;57850;52.922;6.256;2023-05-08T05:56:42;102457.44;;;14.30;nan
12468;BME280;57850;52.922;6.256;2023-05-08T05:59:09;102462.31;;;14.10;nan
12468;BME280;57850;52.922;6.256;2023-05-08T06:01:35;102470.81;;;14.20;nan
12468;BME280;57850;52.922;6.256;2023-05-08T06:04:03;102460.88;;;14.66;nan
12468;BME280;57850;52.922;6.256;2023-05-08T06:06:29;102479.41;;;14.62;nan
12468;BME280;57850;52.922;6.256;2023-05-08T06:08:56;102472.47;;;14.24;nan
12468;BME280;57850;52.922;6.256;2023-05-08T06:11:24;102463.50;;;14.32;nan
12468;BME280;57850;52.922;6.256;2023-05-08T06:13:50;102450.03;;;15.09;nan
12468;BME280;57850;52.922;6.256;2023-05-08T06:16:17;102453.69;;;15.33;nan
12468;BME280;57850;52.922;6.256;2023-05-08T06:18:44;102455.56;;;15.59;nan
12468;BME280;57850;52.922;6.256;2023-05-08T06:21:11;102463.81;;;15.46;nan
12468;BME280;57850;52.922;6.256;2023-05-08T06:23:38;102447.84;;;15.52;nan
12468;BME280;57850;52.922;6.256;2023-05-08T06:26:04;102462.78;;;15.52;nan
12468;BME280;57850;52.922;6.256;2023-05-08T06:28:32;102459.47;;;15.73;nan
12468;BME280;57850;52.922;6.256;2023-05-08T06:30:59;102455.03;;;15.75;nan
12468;BME280;57850;52.922;6.256;2023-05-08T06:33:26;102461.41;;;15.94;nan
12468;BME280;57850;52.922;6.256;2023-05-08T06:35:52;102469.84;;;16.05;nan
12468;BME280;57850;52.922;6.256;2023-05-08T06:38:19;102480.06;;;15.31;nan
12468;BME280;57850;52.922;6.256;2023-05-08T06:40:45;102473.09;;;15.60;nan
12468;BME280;57850;52.922;6.256;2023-05-08T06:43:14;102475.94;;;15.52;nan
12468;BME280;57850;52.922;6.256;2023-05-08T06:45:43;102466.84;;;16.16;nan
12468;BME280;57850;52.922;6.256;2023-05-08T06:48:09;102495.22;;;15.52;nan
12468;BME280;57850;52.922;6.256;2023-05-08T06:50:36;102468.56;;;15.91;nan
12468;BME280;57850;52.922;6.256;2023-05-08T06:53:03;102492.13;;;15.68;nan
12468;BME280;57850;52.922;6.256;2023-05-08T06:55:30;102479.91;;;15.93;nan
12468;BME280;57850;52.922;6.256;2023-05-08T06:57:56;102461.72;;;16.38;nan
12468;BME280;57850;52.922;6.256;2023-05-08T07:00:23;102462.88;;;16.55;nan
12468;BME280;57850;52.922;6.256;2023-05-08T07:02:51;102462.19;;;16.75;nan
12468;BME280;57850;52.922;6.256;2023-05-08T07:05:18;102452.81;;;16.91;nan
12468;BME280;57850;52.922;6.256;2023-05-08T07:07:45;102474.75;;;16.67;nan
12468;BME280;57850;52.922;6.256;2023-05-08T07:10:11;102480.16;;;16.38;nan
12468;BME280;57850;52.922;6.256;2023-05-08T07:12:38;102457.78;;;16.99;nan
12468;BME280;57850;52.922;6.256;2023-05-08T07:15:06;102456.34;;;17.13;nan
12468;BME280;57850;52.922;6.256;2023-05-08T07:17:34;102461.22;;;17.24;nan
12468;BME280;57850;52.922;6.256;2023-05-08T07:20:03;102459.97;;;17.34;nan
12468;BME280;57850;52.922;6.256;2023-05-08T07:22:30;102452.03;;;17.57;nan
12468;BME280;57850;52.922;6.256;2023-05-08T07:24:57;102453.16;;;17.50;nan
12468;BME280;57850;52.922;6.256;2023-05-08T07:27:23;102448.91;;;17.46;nan
12468;BME280;57850;52.922;6.256;2023-05-08T07:29:50;102467.19;;;17.06;nan
12468;BME280;57850;52.922;6.256;2023-05-08T07:32:17;102443.69;;;17.45;nan
12468;BME280;57850;52.922;6.256;2023-05-08T07:34:43;102441.34;;;17.60;nan
12468;BME280;57850;52.922;6.256;2023-05-08T07:37:11;102439.56;;;17.83;nan
12468;BME280;57850;52.922;6.256;2023-05-08T07:39:38;102435.63;;;17.93;nan
12468;BME280;57850;52.922;6.256;2023-05-08T07:42:04;102443.25;;;18.00;nan
12468;BME280;57850;52.922;6.256;2023-05-08T07:44:31;102456.03;;;17.67;nan
12468;BME280;57850;52.922;6.256;2023-05-08T07:46:58;102453.88;;;17.55;nan
12468;BME280;57850;52.922;6.256;2023-05-08T07:49:25;102428.13;;;18.04;nan
12468;BME280;57850;52.922;6.256;2023-05-08T07:51:51;102451.13;;;17.58;nan
12468;BME280;57850;52.922;6.256;2023-05-08T07:54:19;102430.13;;;18.19;nan
12468;BME280;57850;52.922;6.256;2023-05-08T07:56:46;102437.50;;;18.11;nan
12468;BME280;57850;52.922;6.256;2023-05-08T07:59:12;102439.44;;;17.86;nan
12468;BME280;57850;52.922;6.256;2023-05-08T08:01:39;102449.16;;;17.85;nan
12468;BME280;57850;52.922;6.256;2023-05-08T08:04:07;102440.00;;;18.14;nan
12468;BME280;57850;52.922;6.256;2023-05-08T08:06:33;102435.31;;;18.00;nan
12468;BME280;57850;52.922;6.256;2023-05-08T08:09:00;102427.78;;;18.11;nan
12468;BME280;57850;52.922;6.256;2023-05-08T08:11:28;102427.06;;;18.48;nan
12468;BME280;57850;52.922;6.256;2023-05-08T08:13:54;102426.09;;;18.71;nan
12468;BME280;57850;52.922;6.256;2023-05-08T08:16:21;102423.47;;;18.90;nan
12468;BME280;57850;52.922;6.256;2023-05-08T08:18:47;102423.88;;;18.81;nan
12468;BME280;57850;52.922;6.256;2023-05-08T08:21:14;102425.22;;;18.70;nan
12468;BME280;57850;52.922;6.256;2023-05-08T08:23:41;102422.75;;;18.86;nan
12468;BME280;57850;52.922;6.256;2023-05-08T08:26:07;102420.78;;;19.10;nan
12468;BME280;57850;52.922;6.256;2023-05-08T08:28:35;102410.25;;;19.27;nan
12468;BME280;57850;52.922;6.256;2023-05-08T08:31:02;102415.47;;;19.29;nan
12468;BME280;57850;52.922;6.256;2023-05-08T08:33:28;102409.38;;;19.26;nan
12468;BME280;57850;52.922;6.256;2023-05-08T08:35:55;102412.75;;;19.49;nan
12468;BME280;57850;52.922;6.256;2023-05-08T08:38:21;102442.91;;;18.48;nan
12468;BME280;57850;52.922;6.256;2023-05-08T08:40:48;102425.13;;;18.53;nan
12468;BME280;57850;52.922;6.256;2023-05-08T08:43:14;102416.69;;;19.21;nan
12468;BME280;57850;52.922;6.256;2023-05-08T08:45:42;102408.03;;;19.55;nan
12468;BME280;57850;52.922;6.256;2023-05-08T08:48:10;102424.88;;;19.17;nan
12468;BME280;57850;52.922;6.256;2023-05-08T08:50:41;102414.53;;;19.11;nan
12468;BME280;57850;52.922;6.256;2023-05-08T08:53:10;102404.47;;;19.19;nan
12468;BME280;57850;52.922;6.256;2023-05-08T08:55:44;102424.56;;;18.86;nan
12468;BME280;57850;52.922;6.256;2023-05-08T08:58:18;102404.03;;;19.47;nan
12468;BME280;57850;52.922;6.256;2023-05-08T09:00:48;102397.84;;;19.65;nan
12468;BME280;57850;52.922;6.256;2023-05-08T09:03:15;102376.69;;;20.16;nan
12468;BME280;57850;52.922;6.256;2023-05-08T09:05:43;102409.63;;;19.22;nan
12468;BME280;57850;52.922;6.256;2023-05-08T09:08:09;102413.03;;;19.05;nan
12468;BME280;57850;52.922;6.256;2023-05-08T09:10:37;102404.97;;;19.46;nan
12468;BME280;57850;52.922;6.256;2023-05-08T09:13:03;102368.59;;;20.52;nan
12468;BME280;57850;52.922;6.256;2023-05-08T09:15:30;102390.00;;;20.15;nan
12468;BME280;57850;52.922;6.256;2023-05-08T09:17:59;102386.34;;;20.00;nan
12468;BME280;57850;52.922;6.256;2023-05-08T09:20:27;102365.63;;;20.58;nan
12468;BME280;57850;52.922;6.256;2023-05-08T09:22:53;102382.63;;;20.04;nan
12468;BME280;57850;52.922;6.256;2023-05-08T09:25:20;102397.13;;;19.61;nan
12468;BME280;57850;52.922;6.256;2023-05-08T09:27:47;102389.78;;;19.85;nan
12468;BME280;57850;52.922;6.256;2023-05-08T09:30:13;102385.97;;;20.08;nan
12468;BME280;57850;52.922;6.256;2023-05-08T09:32:41;102346.16;;;21.06;nan
12468;BME280;57850;52.922;6.256;2023-05-08T09:35:10;102352.19;;;21.10;nan
12468;BME280;57850;52.922;6.256;2023-05-08T09:37:38;102335.81;;;21.49;nan
12468;BME280;57850;52.922;6.256;2023-05-08T09:40:12;102324.47;;;21.91;nan
12468;BME280;57850;52.922;6.256;2023-05-08T09:42:39;102314.91;;;22.30;nan
12468;BME280;57850;52.922;6.256;2023-05-08T09:45:07;102288.31;;;22.73;nan
12468;BME280;57850;52.922;6.256;2023-05-08T09:47:34;102260.22;;;23.74;nan
12468;BME280;57850;52.922;6.256;2023-05-08T09:50:05;102248.72;;;24.24;nan
12468;BME280;57850;52.922;6.256;2023-05-08T09:52:34;102218.38;;;24.98;nan
12468;BME280;57850;52.922;6.256;2023-05-08T09:55:03;102176.94;;;25.95;nan
12468;BME280;57850;52.922;6.256;2023-05-08T09:57:31;102140.47;;;26.91;nan
12468;BME280;57850;52.922;6.256;2023-05-08T10:00:02;102197.13;;;25.31;nan
12468;BME280;57850;52.922;6.256;2023-05-08T10:02:30;102250.72;;;24.46;nan
12468;BME280;57850;52.922;6.256;2023-05-08T10:04:57;102216.13;;;25.16;nan
12468;BME280;57850;52.922;6.256;2023-05-08T10:07:26;102189.75;;;25.46;nan
12468;BME280;57850;52.922;6.256;2023-05-08T10:09:58;102173.78;;;25.90;nan
12468;BME280;57850;52.922;6.256;2023-05-08T10:12:26;102206.50;;;25.37;nan
12468;BME280;57850;52.922;6.256;2023-05-08T10:14:53;102200.72;;;25.54;nan
12468;BME280;57850;52.922;6.256;2023-05-08T10:17:25;102166.13;;;25.86;nan
12468;BME280;57850;52.922;6.256;2023-05-08T10:19:57;102147.97;;;26.34;nan
12468;BME280;57850;52.922;6.256;2023-05-08T10:22:26;102113.03;;;27.20;nan
12468;BME280;57850;52.922;6.256;2023-05-08T10:24:55;102135.69;;;26.74;nan
12468;BME280;57850;52.922;6.256;2023-05-08T10:27:29;102110.09;;;27.02;nan
12468;BME280;57850;52.922;6.256;2023-05-08T10:30:00;102141.81;;;26.54;nan
12468;BME280;57850;52.922;6.256;2023-05-08T10:32:32;102127.00;;;26.50;nan
12468;BME280;57850;52.922;6.256;2023-05-08T10:35:01;102079.72;;;27.73;nan
12468;BME280;57850;52.922;6.256;2023-05-08T10:37:29;102070.59;;;27.85;nan
12468;BME280;57850;52.922;6.256;2023-05-08T10:39:56;102055.22;;;27.87;nan
12468;BME280;57850;52.922;6.256;2023-05-08T10:42:26;102118.84;;;26.83;nan
12468;BME280;57850;52.922;6.256;2023-05-08T10:44:53;102116.63;;;26.88;nan
12468;BME280;57850;52.922;6.256;2023-05-08T10:47:24;102186.06;;;26.04;nan
12468;BME280;57850;52.922;6.256;2023-05-08T10:50:08;102157.03;;;26.22;nan
12468;BME280;57850;52.922;6.256;2023-05-08T10:52:42;102167.97;;;26.19;nan
12468;BME280;57850;52.922;6.256;2023-05-08T10:55:19;102225.69;;;25.31;nan
12468;BME280;57850;52.922;6.256;2023-05-08T10:58:09;102130.16;;;26.76;nan
12468;BME280;57850;52.922;6.256;2023-05-08T11:01:10;102167.94;;;26.07;nan
12468;BME280;57850;52.922;6.256;2023-05-08T11:03:38;102191.91;;;25.87;nan
12468;BME280;57850;52.922;6.256;2023-05-08T11:06:06;102275.16;;;23.89;nan
12468;BME280;57850;52.922;6.256;2023-05-08T11:08:43;102251.97;;;24.40;nan
12468;BME280;57850;52.922;6.256;2023-05-08T11:11:16;102219.94;;;24.77;nan
12468;BME280;57850;52.922;6.256;2023-05-08T11:13:52;102247.56;;;24.65;nan
12468;BME280;57850;52.922;6.256;2023-05-08T11:19:20;102224.22;;;24.79;nan
12468;BME280;57850;52.922;6.256;2023-05-08T11:25:02;102219.00;;;25.01;nan
12468;BME280;57850;52.922;6.256;2023-05-08T11:27:34;102232.88;;;24.83;nan
12468;BME280;57850;52.922;6.256;2023-05-08T11:30:32;102219.09;;;25.00;nan
12468;BME280;57850;52.922;6.256;2023-05-08T11:33:20;102166.34;;;25.94;nan
12468;BME280;57850;52.922;6.256;2023-05-08T11:35:52;102132.91;;;26.65;nan
12468;BME280;57850;52.922;6.256;2023-05-08T11:38:30;102198.09;;;25.30;nan
12468;BME280;57850;52.922;6.256;2023-05-08T11:40:59;102194.69;;;25.85;nan
12468;BME280;57850;52.922;6.256;2023-05-08T11:46:34;102217.16;;;25.49;nan
12468;BME280;57850;52.922;6.256;2023-05-08T11:49:01;102193.94;;;25.72;nan
12468;BME280;57850;52.922;6.256;2023-05-08T11:51:30;102224.44;;;25.24;nan
12468;BME280;57850;52.922;6.256;2023-05-08T11:53:58;102244.63;;;24.80;nan
12468;BME280;57850;52.922;6.256;2023-05-08T11:56:25;102230.03;;;24.97;nan
12468;BME280;57850;52.922;6.256;2023-05-08T11:59:01;102217.75;;;25.18;nan
12468;BME280;57850;52.922;6.256;2023-05-08T12:01:29;102188.88;;;26.02;nan
12468;BME280;57850;52.922;6.256;2023-05-08T12:04:00;102199.41;;;25.60;nan
12468;BME280;57850;52.922;6.256;2023-05-08T12:06:27;102172.94;;;26.12;nan
12468;BME280;57850;52.922;6.256;2023-05-08T12:08:53;102188.38;;;26.08;nan
12468;BME280;57850;52.922;6.256;2023-05-08T12:11:21;102230.78;;;24.99;nan
12468;BME280;57850;52.922;6.256;2023-05-08T12:13:49;102184.63;;;26.00;nan
12468;BME280;57850;52.922;6.256;2023-05-08T12:16:16;102196.31;;;25.42;nan
12468;BME280;57850;52.922;6.256;2023-05-08T12:18:44;102237.66;;;24.54;nan
12468;BME280;57850;52.922;6.256;2023-05-08T12:21:10;102227.19;;;24.75;nan
12468;BME280;57850;52.922;6.256;2023-05-08T12:23:37;102181.47;;;25.84;nan
12468;BME280;57850;52.922;6.256;2023-05-08T12:26:04;102201.13;;;25.26;nan
12468;BME280;57850;52.922;6.256;2023-05-08T12:28:30;102185.81;;;25.85;nan
12468;BME280;57850;52.922;6.256;2023-05-08T12:30:58;102236.28;;;24.48;nan
12468;BME280;57850;52.922;6.256;2023-05-08T12:33:24;102198.06;;;25.54;nan
12468;BME280;57850;52.922;6.256;2023-05-08T12:35:54;102116.66;;;26.77;nan
12468;BME280;57850;52.922;6.256;2023-05-08T12:38:24;102181.53;;;25.49;nan
12468;BME280;57850;52.922;6.256;2023-05-08T12:40:51;102186.66;;;25.17;nan
12468;BME280;57850;52.922;6.256;2023-05-08T12:43:20;102202.50;;;25.42;nan
12468;BME280;57850;52.922;6.256;2023-05-08T12:45:49;102112.66;;;27.24;nan
12468;BME280;57850;52.922;6.256;2023-05-08T12:48:16;102113.66;;;27.02;nan
12468;BME280;57850;52.922;6.256;2023-05-08T12:50:44;102068.03;;;27.74;nan
12468;BME280;57850;52.922;6.256;2023-05-08T12:53:13;102046.97;;;28.29;nan
12468;BME280;57850;52.922;6.256;2023-05-08T12:55:49;102091.84;;;27.37;nan
12468;BME280;57850;52.922;6.256;2023-05-08T12:58:17;102172.81;;;25.80;nan
12468;BME280;57850;52.922;6.256;2023-05-08T13:00:45;102195.53;;;25.18;nan
12468;BME280;57850;52.922;6.256;2023-05-08T13:03:19;102179.31;;;25.43;nan
12468;BME280;57850;52.922;6.256;2023-05-08T13:05:47;102137.19;;;26.24;nan
12468;BME280;57850;52.922;6.256;2023-05-08T13:08:15;102183.34;;;25.14;nan
12468;BME280;57850;52.922;6.256;2023-05-08T13:10:42;102187.88;;;25.24;nan
12468;BME280;57850;52.922;6.256;2023-05-08T13:13:10;102116.97;;;26.63;nan
12468;BME280;57850;52.922;6.256;2023-05-08T13:15:37;102150.56;;;26.02;nan
12468;BME280;57850;52.922;6.256;2023-05-08T13:18:04;102152.25;;;25.92;nan
12468;BME280;57850;52.922;6.256;2023-05-08T13:20:31;102168.09;;;25.38;nan
12468;BME280;57850;52.922;6.256;2023-05-08T13:22:58;102181.31;;;25.28;nan
12468;BME280;57850;52.922;6.256;2023-05-08T13:25:26;102124.34;;;26.50;nan
12468;BME280;57850;52.922;6.256;2023-05-08T13:27:52;102147.75;;;26.15;nan
12468;BME280;57850;52.922;6.256;2023-05-08T13:30:19;102132.78;;;26.23;nan
12468;BME280;57850;52.922;6.256;2023-05-08T13:32:46;102095.00;;;26.69;nan